• Join FlightAware (Why Join?)
  • Login
  • US Flag 
04:34AM EST


 

Airport Tracker/Info


-or-


 

Live Flight TrackerFlight Track Log ✈ RPA3220 ✈ 29-Sep-2013 ✈ KDCA - KBDL

Flight Track Log - Related Links

Times and Time Zones

All times are in EDT time to prevent confusion due to time zone crossing. See the RPA3220 flight status page for this flight to view local times or setup timezone preferences in your user account.

Time Position Orientation Groundspeed Altitude Reporting Facility
EDT Latitude Longitude Course Direction KTS MPH feet Rate Location/Type
02:53PM 38.8833 -77.0667 99° East 174 200 1,300  Level Potomac TRACON
02:54PM 39.0394 -76.7904 63° Northeast  Level Estimated
02:54PM 38.9333 -77.1333 314° West 261 300 4,100  Level Potomac TRACON
02:55PM 39.1018 -76.7077 61° Northeast  Level Estimated
02:55PM 39.0167 -77.1500 351° North 296 341 7,400  Level Potomac TRACON
02:56PM 39.1641 -76.6248 90° East  Level Estimated
02:56PM 39.0467 -77.0108 74° East 303 349 11,500  Level Washington Center
02:57PM 39.2264 -76.5418 83° East  Level Estimated
02:57PM 39.0628 -76.8961 80° East 308 354 14,000  Level Washington Center
02:58PM 39.2127 -76.4276 99° East  Level FlightAware Approximate
02:58PM 39.0786 -76.7761 80° East 324 373 16,400  Level Washington Center
02:59PM 39.0942 -76.6561 80° East 335 386 19,200 2,640 Climbing Washington Center
03:00PM 39.1097 -76.5358 81° East 335 386 21,600 1,860 Climbing Washington Center
03:01PM 39.1253 -76.4103 81° East 335 386 23,000 660 Climbing Washington Center
03:02PM 39.1428 -76.2847 80° East 345 397 23,000 600 Level Washington Center
03:08PM 39.3970 -75.6150 80° East 100 115 27,000 660 Climbing FlightAware
03:08PM 39.4110 -75.5970 45° Northeast 422 486 27,000  Level FlightAware
03:09PM 39.4800 -75.5090 45° Northeast 424 488 27,000  Level FlightAware
03:10PM 39.5220 -75.4570 44° Northeast 424 488 27,000  Level FlightAware
03:10PM 39.5670 -75.3990 45° Northeast 424 488 27,000  Level FlightAware
03:11PM 39.6150 -75.3390 44° Northeast 424 488 27,000  Level FlightAware
03:12PM 39.6580 -75.2850 44° Northeast 424 488 27,000  Level FlightAware
03:12PM 39.7020 -75.2310 43° Northeast 424 488 27,000  Level FlightAware
03:14PM 39.8633 -74.9817 43° Northeast 403 464 27,000  Level New York Center
03:15PM 39.9400 -74.8753 47° Northeast 398 458 27,000 -60 Level New York Center
03:21PM 40.4060 -74.2770 47° Northeast 424 488 26,800 -60 Descending FlightAware
03:21PM 40.4500 -74.2270 41° Northeast 408 470 26,700 -120 Descending FlightAware
03:22PM 40.4930 -74.1760 42° Northeast 408 470 26,700  Level FlightAware
03:22PM 40.5370 -74.1240 42° Northeast 408 470 26,700  Level FlightAware
03:23PM 40.5820 -74.0700 42° Northeast 408 470 26,700  Level FlightAware
03:24PM 40.6220 -74.0220 42° Northeast 408 470 26,700  Level FlightAware
03:24PM 40.6670 -73.9700 41° Northeast 408 470 26,700 -2,700 Level FlightAware
03:26PM 40.6917 -73.6228 41° Northeast 395 455 21,200 -2,700 Descending Boston Center
03:27PM 40.7381 -73.4794 67° East 405 466 20,000 -1,080 Descending Boston Center
03:28PM 40.7883 -73.3217 67° East 392 451 19,000 -720 Descending Boston Center
03:29PM 40.8669 -73.2206 44° Northeast 396 456 18,600 -660 Descending Boston Center
03:30PM 40.9481 -73.1250 42° Northeast 390 449 17,700 -1,140 Descending Boston Center
03:31PM 41.0269 -73.0317 42° Northeast 383 441 16,300 -1,500 Descending Boston Center
03:32PM 41.1028 -72.9411 42° Northeast 370 426 14,700 -1,560 Descending Boston Center
03:33PM 41.1767 -72.8550 41° Northeast 356 410 13,100 -1,680 Descending Boston Center
03:33PM 41.1964 -72.8306 43° Northeast 352 405 12,700 -1,500 Descending Boston Center
03:34PM 41.2494 -72.7694 41° Northeast 348 400 11,600 -1,500 Descending Boston Center
03:34PM 41.2786 -72.7456 32° Northeast 352 405 11,100 -840 Descending Boston Center
03:35PM 41.3592 -72.7364 North 350 403 10,800 -600 Descending Boston Center
03:35PM 41.3831 -72.7514 335° Northwest 363 418 10,500 -780 Descending Boston Center
03:36PM 41.4450 -72.8008 329° Northwest 353 406 10,000 -540 Descending Boston Center
03:36PM 41.4647 -72.8178 327° Northwest 334 384 10,000 -1,020 Level Boston Center
03:37PM 41.5186 -72.8619 328° Northwest 316 364 9,000 -1,500 Descending Boston Center
03:37PM 41.5403 -72.8708 343° North 298 343 8,500 -1,620 Descending Boston Center
03:38PM 41.6028 -72.8781 355° North 286 329 7,300 -1,620 Descending Boston Center
03:38PM 41.6286 -72.8825 353° North 283 326 6,700 -1,620 Descending Boston Center
03:39PM 41.6794 -72.8864 357° North 275 316 5,700 -1,620 Descending Boston Center
03:39PM 41.7028 -72.8775 16° North 268 308 5,100 -1,260 Descending Boston Center
03:40PM 41.7553 -72.8581 15° North 261 300 4,400 -840 Descending Boston Center
03:40PM 41.7706 -72.8531 14° North 243 280 4,300 -300 Descending Boston Center
03:41PM 41.8136 -72.8369 16° North 214 246 4,100 -420 Descending Boston Center
03:41PM 41.8244 -72.8319 19° North 190 219 3,900 -1,440 Descending Boston Center
03:42PM 41.8531 -72.8014 38° Northeast 174 200 2,700 -1,560 Descending Boston Center
03:43PM 41.8608 -72.7903 47° Northeast 154 177 2,300 -1,140 Descending Boston Center
03:43PM 41.8853 -72.7592 43° Northeast 154 177 1,500 -840 Descending Boston Center
03:44PM 41.8917 -72.7553 24° Northeast 142 163 1,500 -720 Level Boston Center
03:44PM 41.9122 -72.7222 50° Northeast 148 170 800 -900 Descending Boston Center
03:44PM 41.9164 -72.7178 38° Northeast 142 163 700 -600 Descending Boston Center
03:45PM 41.9397 -72.6864 45° Northeast 140 161 200 -600 Descending Boston Center